sensor_id;sensor_type;location;lat;lon;timestamp;P1;durP1;ratioP1;P2;durP2;ratioP2
75009;SDS011;63564;46.840;18.336;2023-05-10T00:00:01;6.23;;;2.97;;
75009;SDS011;63564;46.840;18.336;2023-05-10T00:03:04;6.57;;;2.92;;
75009;SDS011;63564;46.840;18.336;2023-05-10T00:06:05;6.47;;;2.78;;
75009;SDS011;63564;46.840;18.336;2023-05-10T00:09:05;7.47;;;3.40;;
75009;SDS011;63564;46.840;18.336;2023-05-10T00:12:06;7.23;;;3.60;;
75009;SDS011;63564;46.840;18.336;2023-05-10T00:15:07;7.50;;;3.40;;
75009;SDS011;63564;46.840;18.336;2023-05-10T00:18:09;7.80;;;3.30;;
75009;SDS011;63564;46.840;18.336;2023-05-10T00:21:10;7.17;;;3.50;;
75009;SDS011;63564;46.840;18.336;2023-05-10T00:24:10;8.45;;;3.67;;
75009;SDS011;63564;46.840;18.336;2023-05-10T00:27:10;7.43;;;3.58;;
75009;SDS011;63564;46.840;18.336;2023-05-10T00:30:11;10.40;;;4.47;;
75009;SDS011;63564;46.840;18.336;2023-05-10T00:33:11;5.80;;;3.37;;
75009;SDS011;63564;46.840;18.336;2023-05-10T00:36:12;8.52;;;4.05;;
75009;SDS011;63564;46.840;18.336;2023-05-10T00:39:12;10.38;;;3.60;;
75009;SDS011;63564;46.840;18.336;2023-05-10T00:42:13;6.90;;;3.30;;
75009;SDS011;63564;46.840;18.336;2023-05-10T00:45:13;8.83;;;3.80;;
75009;SDS011;63564;46.840;18.336;2023-05-10T00:48:14;7.63;;;3.50;;
75009;SDS011;63564;46.840;18.336;2023-05-10T00:51:14;6.45;;;3.58;;
75009;SDS011;63564;46.840;18.336;2023-05-10T00:54:14;9.23;;;3.55;;
75009;SDS011;63564;46.840;18.336;2023-05-10T00:57:15;6.27;;;3.47;;
75009;SDS011;63564;46.840;18.336;2023-05-10T01:00:16;6.72;;;3.70;;
75009;SDS011;63564;46.840;18.336;2023-05-10T01:03:18;7.30;;;3.45;;
75009;SDS011;63564;46.840;18.336;2023-05-10T01:06:18;7.33;;;3.50;;
75009;SDS011;63564;46.840;18.336;2023-05-10T01:09:19;8.85;;;3.83;;
75009;SDS011;63564;46.840;18.336;2023-05-10T01:12:21;9.37;;;3.70;;
75009;SDS011;63564;46.840;18.336;2023-05-10T01:15:21;8.20;;;3.72;;
75009;SDS011;63564;46.840;18.336;2023-05-10T01:18:22;8.23;;;3.70;;
75009;SDS011;63564;46.840;18.336;2023-05-10T01:35:12;9.30;;;4.00;;
75009;SDS011;63564;46.840;18.336;2023-05-10T01:48:05;8.77;;;3.70;;
75009;SDS011;63564;46.840;18.336;2023-05-10T01:51:10;10.50;;;4.25;;
75009;SDS011;63564;46.840;18.336;2023-05-10T01:54:11;7.90;;;3.90;;
75009;SDS011;63564;46.840;18.336;2023-05-10T01:57:13;9.20;;;4.10;;
75009;SDS011;63564;46.840;18.336;2023-05-10T02:00:14;9.40;;;3.85;;
75009;SDS011;63564;46.840;18.336;2023-05-10T02:03:16;7.90;;;4.00;;
75009;SDS011;63564;46.840;18.336;2023-05-10T02:06:20;8.65;;;4.15;;
75009;SDS011;63564;46.840;18.336;2023-05-10T02:09:23;8.82;;;4.30;;
75009;SDS011;63564;46.840;18.336;2023-05-10T02:12:27;8.10;;;4.17;;
75009;SDS011;63564;46.840;18.336;2023-05-10T02:15:30;8.90;;;3.88;;
75009;SDS011;63564;46.840;18.336;2023-05-10T02:18:31;11.00;;;4.35;;
75009;SDS011;63564;46.840;18.336;2023-05-10T02:21:33;8.65;;;4.50;;
75009;SDS011;63564;46.840;18.336;2023-05-10T02:24:35;9.93;;;4.30;;
75009;SDS011;63564;46.840;18.336;2023-05-10T02:27:37;10.93;;;4.57;;
75009;SDS011;63564;46.840;18.336;2023-05-10T02:30:38;9.85;;;4.40;;
75009;SDS011;63564;46.840;18.336;2023-05-10T02:33:39;10.25;;;4.80;;
75009;SDS011;63564;46.840;18.336;2023-05-10T02:36:40;9.40;;;4.35;;
75009;SDS011;63564;46.840;18.336;2023-05-10T02:39:42;9.47;;;4.57;;
75009;SDS011;63564;46.840;18.336;2023-05-10T02:42:45;10.55;;;5.03;;
75009;SDS011;63564;46.840;18.336;2023-05-10T02:45:48;10.93;;;4.72;;
75009;SDS011;63564;46.840;18.336;2023-05-10T02:48:49;8.70;;;4.57;;
75009;SDS011;63564;46.840;18.336;2023-05-10T02:51:57;11.77;;;4.90;;
75009;SDS011;63564;46.840;18.336;2023-05-10T02:55:02;11.03;;;4.90;;
75009;SDS011;63564;46.840;18.336;2023-05-10T02:58:05;10.38;;;4.78;;
75009;SDS011;63564;46.840;18.336;2023-05-10T03:01:05;10.70;;;5.10;;
75009;SDS011;63564;46.840;18.336;2023-05-10T03:04:07;12.30;;;5.13;;
75009;SDS011;63564;46.840;18.336;2023-05-10T03:07:08;11.23;;;4.60;;
75009;SDS011;63564;46.840;18.336;2023-05-10T03:10:08;10.27;;;5.07;;
75009;SDS011;63564;46.840;18.336;2023-05-10T03:13:19;10.00;;;5.10;;
75009;SDS011;63564;46.840;18.336;2023-05-10T03:16:29;10.70;;;4.80;;
75009;SDS011;63564;46.840;18.336;2023-05-10T03:20:15;10.18;;;4.90;;
75009;SDS011;63564;46.840;18.336;2023-05-10T03:26:23;9.65;;;4.80;;
75009;SDS011;63564;46.840;18.336;2023-05-10T03:29:25;11.57;;;5.63;;
75009;SDS011;63564;46.840;18.336;2023-05-10T03:32:28;10.73;;;5.03;;
75009;SDS011;63564;46.840;18.336;2023-05-10T03:35:30;9.68;;;4.60;;
75009;SDS011;63564;46.840;18.336;2023-05-10T03:38:30;11.33;;;5.30;;
75009;SDS011;63564;46.840;18.336;2023-05-10T03:41:30;12.80;;;5.15;;
75009;SDS011;63564;46.840;18.336;2023-05-10T03:44:31;12.37;;;5.23;;
75009;SDS011;63564;46.840;18.336;2023-05-10T03:47:33;10.73;;;5.50;;
75009;SDS011;63564;46.840;18.336;2023-05-10T03:50:33;11.90;;;5.33;;
75009;SDS011;63564;46.840;18.336;2023-05-10T03:53:33;8.63;;;4.90;;
75009;SDS011;63564;46.840;18.336;2023-05-10T03:56:34;11.90;;;5.83;;
75009;SDS011;63564;46.840;18.336;2023-05-10T03:59:34;13.43;;;6.00;;
75009;SDS011;63564;46.840;18.336;2023-05-10T04:02:35;12.52;;;5.95;;
75009;SDS011;63564;46.840;18.336;2023-05-10T04:05:36;12.85;;;5.47;;
75009;SDS011;63564;46.840;18.336;2023-05-10T04:08:36;12.63;;;6.03;;
75009;SDS011;63564;46.840;18.336;2023-05-10T04:11:36;15.07;;;5.80;;
75009;SDS011;63564;46.840;18.336;2023-05-10T04:14:37;12.87;;;6.00;;
75009;SDS011;63564;46.840;18.336;2023-05-10T04:17:37;13.32;;;5.78;;
75009;SDS011;63564;46.840;18.336;2023-05-10T04:20:38;14.23;;;5.77;;
75009;SDS011;63564;46.840;18.336;2023-05-10T04:23:38;13.53;;;6.10;;
75009;SDS011;63564;46.840;18.336;2023-05-10T04:26:39;13.17;;;6.00;;
75009;SDS011;63564;46.840;18.336;2023-05-10T04:29:39;12.90;;;5.80;;
75009;SDS011;63564;46.840;18.336;2023-05-10T04:32:39;13.00;;;6.47;;
75009;SDS011;63564;46.840;18.336;2023-05-10T04:35:40;13.65;;;5.90;;
75009;SDS011;63564;46.840;18.336;2023-05-10T04:38:41;12.75;;;6.45;;
75009;SDS011;63564;46.840;18.336;2023-05-10T04:41:42;14.50;;;6.70;;
75009;SDS011;63564;46.840;18.336;2023-05-10T04:44:42;13.47;;;5.90;;
75009;SDS011;63564;46.840;18.336;2023-05-10T04:47:43;11.70;;;5.50;;
75009;SDS011;63564;46.840;18.336;2023-05-10T04:50:43;11.87;;;5.70;;
75009;SDS011;63564;46.840;18.336;2023-05-10T04:53:44;10.55;;;5.60;;
75009;SDS011;63564;46.840;18.336;2023-05-10T04:56:44;12.70;;;5.40;;
75009;SDS011;63564;46.840;18.336;2023-05-10T04:59:45;14.73;;;6.70;;
75009;SDS011;63564;46.840;18.336;2023-05-10T05:02:45;13.20;;;6.63;;
75009;SDS011;63564;46.840;18.336;2023-05-10T05:05:45;11.57;;;5.93;;
75009;SDS011;63564;46.840;18.336;2023-05-10T05:08:46;11.53;;;6.03;;
75009;SDS011;63564;46.840;18.336;2023-05-10T05:11:47;12.98;;;6.63;;
75009;SDS011;63564;46.840;18.336;2023-05-10T05:14:47;12.25;;;6.35;;
75009;SDS011;63564;46.840;18.336;2023-05-10T05:17:47;12.60;;;6.33;;
75009;SDS011;63564;46.840;18.336;2023-05-10T05:20:48;13.53;;;5.97;;
75009;SDS011;63564;46.840;18.336;2023-05-10T05:23:48;8.83;;;4.87;;
75009;SDS011;63564;46.840;18.336;2023-05-10T05:26:48;9.33;;;4.83;;
75009;SDS011;63564;46.840;18.336;2023-05-10T05:29:55;7.60;;;4.10;;
75009;SDS011;63564;46.840;18.336;2023-05-10T05:32:56;10.93;;;5.70;;
75009;SDS011;63564;46.840;18.336;2023-05-10T05:35:56;9.40;;;5.00;;
75009;SDS011;63564;46.840;18.336;2023-05-10T05:38:57;11.52;;;5.95;;
75009;SDS011;63564;46.840;18.336;2023-05-10T05:41:57;10.63;;;5.40;;
75009;SDS011;63564;46.840;18.336;2023-05-10T05:44:58;10.53;;;5.17;;
75009;SDS011;63564;46.840;18.336;2023-05-10T05:47:59;10.90;;;5.90;;
75009;SDS011;63564;46.840;18.336;2023-05-10T05:50:59;10.33;;;5.23;;
75009;SDS011;63564;46.840;18.336;2023-05-10T05:53:59;10.43;;;5.57;;
75009;SDS011;63564;46.840;18.336;2023-05-10T05:57:00;11.30;;;4.90;;
75009;SDS011;63564;46.840;18.336;2023-05-10T06:00:00;7.68;;;4.55;;
75009;SDS011;63564;46.840;18.336;2023-05-10T06:03:02;10.80;;;5.18;;
75009;SDS011;63564;46.840;18.336;2023-05-10T06:06:03;8.90;;;4.68;;
75009;SDS011;63564;46.840;18.336;2023-05-10T06:09:04;8.90;;;5.10;;
75009;SDS011;63564;46.840;18.336;2023-05-10T06:12:04;10.60;;;5.23;;
75009;SDS011;63564;46.840;18.336;2023-05-10T06:15:05;10.68;;;4.82;;
75009;SDS011;63564;46.840;18.336;2023-05-10T06:18:06;9.90;;;4.47;;
75009;SDS011;63564;46.840;18.336;2023-05-10T06:21:06;7.53;;;4.05;;
75009;SDS011;63564;46.840;18.336;2023-05-10T06:24:07;9.87;;;5.13;;
75009;SDS011;63564;46.840;18.336;2023-05-10T06:27:08;11.75;;;5.38;;
75009;SDS011;63564;46.840;18.336;2023-05-10T06:30:08;9.43;;;5.13;;
75009;SDS011;63564;46.840;18.336;2023-05-10T06:33:09;8.20;;;4.43;;
75009;SDS011;63564;46.840;18.336;2023-05-10T06:36:09;6.22;;;3.53;;
75009;SDS011;63564;46.840;18.336;2023-05-10T06:39:10;10.03;;;5.20;;
75009;SDS011;63564;46.840;18.336;2023-05-10T06:42:11;7.15;;;3.65;;
75009;SDS011;63564;46.840;18.336;2023-05-10T06:45:12;7.27;;;3.93;;
75009;SDS011;63564;46.840;18.336;2023-05-10T06:48:13;9.48;;;4.65;;
75009;SDS011;63564;46.840;18.336;2023-05-10T06:51:13;8.97;;;4.67;;
75009;SDS011;63564;46.840;18.336;2023-05-10T06:54:14;7.67;;;3.80;;
75009;SDS011;63564;46.840;18.336;2023-05-10T06:57:14;8.10;;;3.93;;
75009;SDS011;63564;46.840;18.336;2023-05-10T07:00:15;7.53;;;4.00;;
75009;SDS011;63564;46.840;18.336;2023-05-10T07:03:15;8.02;;;4.80;;
75009;SDS011;63564;46.840;18.336;2023-05-10T07:06:16;7.87;;;4.20;;
75009;SDS011;63564;46.840;18.336;2023-05-10T07:09:16;8.33;;;4.87;;
75009;SDS011;63564;46.840;18.336;2023-05-10T07:12:17;8.03;;;4.37;;
75009;SDS011;63564;46.840;18.336;2023-05-10T07:15:17;8.75;;;4.50;;
75009;SDS011;63564;46.840;18.336;2023-05-10T07:18:18;7.78;;;4.53;;
75009;SDS011;63564;46.840;18.336;2023-05-10T07:21:18;7.53;;;4.63;;
75009;SDS011;63564;46.840;18.336;2023-05-10T07:24:18;9.80;;;5.10;;
75009;SDS011;63564;46.840;18.336;2023-05-10T07:27:19;8.17;;;4.57;;
75009;SDS011;63564;46.840;18.336;2023-05-10T07:30:19;8.20;;;5.32;;
75009;SDS011;63564;46.840;18.336;2023-05-10T07:33:20;9.17;;;5.70;;
75009;SDS011;63564;46.840;18.336;2023-05-10T07:36:20;7.07;;;3.90;;
75009;SDS011;63564;46.840;18.336;2023-05-10T07:39:21;8.60;;;5.13;;
75009;SDS011;63564;46.840;18.336;2023-05-10T07:42:21;6.00;;;3.00;;
75009;SDS011;63564;46.840;18.336;2023-05-10T07:45:22;7.13;;;3.65;;
75009;SDS011;63564;46.840;18.336;2023-05-10T07:48:23;6.40;;;3.20;;
75009;SDS011;63564;46.840;18.336;2023-05-10T07:51:23;6.57;;;3.43;;
75009;SDS011;63564;46.840;18.336;2023-05-10T07:54:23;6.63;;;3.30;;
75009;SDS011;63564;46.840;18.336;2023-05-10T07:57:24;6.30;;;3.07;;
75009;SDS011;63564;46.840;18.336;2023-05-10T08:00:24;5.57;;;2.90;;
75009;SDS011;63564;46.840;18.336;2023-05-10T08:03:25;4.55;;;2.40;;
75009;SDS011;63564;46.840;18.336;2023-05-10T08:06:26;6.30;;;2.63;;
75009;SDS011;63564;46.840;18.336;2023-05-10T08:09:28;6.13;;;3.13;;
75009;SDS011;63564;46.840;18.336;2023-05-10T08:12:28;5.87;;;2.93;;
75009;SDS011;63564;46.840;18.336;2023-05-10T08:15:28;7.13;;;3.30;;
75009;SDS011;63564;46.840;18.336;2023-05-10T08:18:29;6.27;;;3.27;;
75009;SDS011;63564;46.840;18.336;2023-05-10T08:21:29;6.40;;;3.10;;
75009;SDS011;63564;46.840;18.336;2023-05-10T08:24:31;6.35;;;3.35;;
75009;SDS011;63564;46.840;18.336;2023-05-10T08:27:31;6.53;;;3.17;;
75009;SDS011;63564;46.840;18.336;2023-05-10T08:30:32;7.47;;;3.23;;
75009;SDS011;63564;46.840;18.336;2023-05-10T08:33:32;5.43;;;2.50;;
75009;SDS011;63564;46.840;18.336;2023-05-10T08:36:32;4.90;;;2.63;;
75009;SDS011;63564;46.840;18.336;2023-05-10T08:39:36;5.50;;;2.97;;
75009;SDS011;63564;46.840;18.336;2023-05-10T08:42:39;5.72;;;2.83;;
75009;SDS011;63564;46.840;18.336;2023-05-10T08:45:42;5.10;;;2.95;;
75009;SDS011;63564;46.840;18.336;2023-05-10T08:48:48;5.87;;;2.63;;
75009;SDS011;63564;46.840;18.336;2023-05-10T08:51:51;5.45;;;2.90;;
75009;SDS011;63564;46.840;18.336;2023-05-10T08:54:55;7.85;;;3.22;;
75009;SDS011;63564;46.840;18.336;2023-05-10T08:57:55;4.90;;;2.47;;
75009;SDS011;63564;46.840;18.336;2023-05-10T09:00:56;4.93;;;2.35;;
75009;SDS011;63564;46.840;18.336;2023-05-10T09:03:57;4.90;;;2.60;;
75009;SDS011;63564;46.840;18.336;2023-05-10T09:06:58;5.30;;;3.20;;
75009;SDS011;63564;46.840;18.336;2023-05-10T09:09:58;5.10;;;2.60;;
75009;SDS011;63564;46.840;18.336;2023-05-10T09:12:59;4.68;;;2.60;;
75009;SDS011;63564;46.840;18.336;2023-05-10T09:15:59;6.37;;;2.70;;
75009;SDS011;63564;46.840;18.336;2023-05-10T09:19:00;5.32;;;3.00;;
75009;SDS011;63564;46.840;18.336;2023-05-10T09:22:01;5.90;;;2.70;;
75009;SDS011;63564;46.840;18.336;2023-05-10T09:28:12;4.07;;;2.00;;
75009;SDS011;63564;46.840;18.336;2023-05-10T09:31:13;5.00;;;2.78;;
75009;SDS011;63564;46.840;18.336;2023-05-10T09:34:20;5.47;;;2.87;;
75009;SDS011;63564;46.840;18.336;2023-05-10T09:37:31;5.47;;;2.42;;
75009;SDS011;63564;46.840;18.336;2023-05-10T09:40:31;5.70;;;3.10;;
75009;SDS011;63564;46.840;18.336;2023-05-10T09:43:37;5.07;;;2.70;;
75009;SDS011;63564;46.840;18.336;2023-05-10T09:46:37;5.63;;;2.70;;
75009;SDS011;63564;46.840;18.336;2023-05-10T09:49:38;5.27;;;2.70;;
75009;SDS011;63564;46.840;18.336;2023-05-10T09:52:54;4.20;;;2.20;;
75009;SDS011;63564;46.840;18.336;2023-05-10T09:55:59;5.78;;;2.80;;
75009;SDS011;63564;46.840;18.336;2023-05-10T09:59:03;6.20;;;3.00;;
75009;SDS011;63564;46.840;18.336;2023-05-10T10:02:03;17.25;;;3.53;;
75009;SDS011;63564;46.840;18.336;2023-05-10T10:05:05;5.40;;;2.80;;
75009;SDS011;63564;46.840;18.336;2023-05-10T10:08:07;6.38;;;2.78;;
75009;SDS011;63564;46.840;18.336;2023-05-10T10:11:07;3.45;;;2.08;;
75009;SDS011;63564;46.840;18.336;2023-05-10T10:14:08;5.57;;;2.63;;
75009;SDS011;63564;46.840;18.336;2023-05-10T10:17:08;5.50;;;2.70;;
75009;SDS011;63564;46.840;18.336;2023-05-10T10:20:09;5.65;;;2.63;;
75009;SDS011;63564;46.840;18.336;2023-05-10T10:23:10;5.97;;;2.83;;
75009;SDS011;63564;46.840;18.336;2023-05-10T10:26:10;4.15;;;2.10;;
75009;SDS011;63564;46.840;18.336;2023-05-10T10:32:57;5.60;;;2.97;;
75009;SDS011;63564;46.840;18.336;2023-05-10T10:36:05;5.68;;;2.60;;
75009;SDS011;63564;46.840;18.336;2023-05-10T10:39:08;5.13;;;2.70;;
75009;SDS011;63564;46.840;18.336;2023-05-10T10:42:09;5.90;;;2.63;;
75009;SDS011;63564;46.840;18.336;2023-05-10T10:45:13;4.40;;;2.40;;
75009;SDS011;63564;46.840;18.336;2023-05-10T10:48:19;5.45;;;2.50;;
75009;SDS011;63564;46.840;18.336;2023-05-10T10:51:21;4.47;;;2.10;;
75009;SDS011;63564;46.840;18.336;2023-05-10T10:54:26;4.37;;;2.40;;
75009;SDS011;63564;46.840;18.336;2023-05-10T10:57:28;5.40;;;2.10;;
75009;SDS011;63564;46.840;18.336;2023-05-10T11:00:38;4.63;;;2.47;;
75009;SDS011;63564;46.840;18.336;2023-05-10T11:03:41;4.38;;;2.38;;
75009;SDS011;63564;46.840;18.336;2023-05-10T11:07:17;5.65;;;2.47;;
75009;SDS011;63564;46.840;18.336;2023-05-10T11:10:23;3.88;;;2.20;;
75009;SDS011;63564;46.840;18.336;2023-05-10T11:13:28;4.10;;;2.10;;
75009;SDS011;63564;46.840;18.336;2023-05-10T11:16:42;3.72;;;2.17;;
75009;SDS011;63564;46.840;18.336;2023-05-10T11:20:01;4.65;;;2.42;;
75009;SDS011;63564;46.840;18.336;2023-05-10T11:23:14;3.85;;;2.28;;
75009;SDS011;63564;46.840;18.336;2023-05-10T11:26:18;3.78;;;1.98;;
75009;SDS011;63564;46.840;18.336;2023-05-10T11:29:18;5.80;;;2.10;;
75009;SDS011;63564;46.840;18.336;2023-05-10T11:32:19;5.32;;;2.28;;
75009;SDS011;63564;46.840;18.336;2023-05-10T11:35:20;4.27;;;2.17;;
75009;SDS011;63564;46.840;18.336;2023-05-10T11:38:21;4.43;;;2.28;;
75009;SDS011;63564;46.840;18.336;2023-05-10T11:41:21;5.27;;;2.33;;
75009;SDS011;63564;46.840;18.336;2023-05-10T11:44:23;3.70;;;2.20;;
75009;SDS011;63564;46.840;18.336;2023-05-10T11:47:24;4.33;;;2.20;;
75009;SDS011;63564;46.840;18.336;2023-05-10T11:50:25;29.40;;;4.23;;
75009;SDS011;63564;46.840;18.336;2023-05-10T11:53:29;4.00;;;2.10;;
75009;SDS011;63564;46.840;18.336;2023-05-10T11:56:32;3.90;;;2.10;;
75009;SDS011;63564;46.840;18.336;2023-05-10T11:59:32;3.97;;;2.13;;
75009;SDS011;63564;46.840;18.336;2023-05-10T12:02:33;6.83;;;2.30;;
75009;SDS011;63564;46.840;18.336;2023-05-10T12:05:33;6.43;;;3.23;;
75009;SDS011;63564;46.840;18.336;2023-05-10T12:08:35;5.15;;;2.30;;
75009;SDS011;63564;46.840;18.336;2023-05-10T12:11:37;3.77;;;1.97;;
75009;SDS011;63564;46.840;18.336;2023-05-10T12:14:39;4.45;;;2.50;;
75009;SDS011;63564;46.840;18.336;2023-05-10T12:17:39;4.53;;;2.57;;
75009;SDS011;63564;46.840;18.336;2023-05-10T12:20:40;4.65;;;2.40;;
75009;SDS011;63564;46.840;18.336;2023-05-10T12:23:41;4.32;;;2.25;;
75009;SDS011;63564;46.840;18.336;2023-05-10T12:26:41;3.97;;;2.23;;
75009;SDS011;63564;46.840;18.336;2023-05-10T12:29:42;3.70;;;2.00;;
75009;SDS011;63564;46.840;18.336;2023-05-10T12:32:44;5.43;;;2.20;;
75009;SDS011;63564;46.840;18.336;2023-05-10T12:35:46;5.00;;;2.22;;
75009;SDS011;63564;46.840;18.336;2023-05-10T12:38:51;3.67;;;2.25;;
75009;SDS011;63564;46.840;18.336;2023-05-10T12:42:02;14.00;;;3.53;;
75009;SDS011;63564;46.840;18.336;2023-05-10T12:45:03;10.52;;;4.22;;
75009;SDS011;63564;46.840;18.336;2023-05-10T12:48:05;4.37;;;2.00;;
75009;SDS011;63564;46.840;18.336;2023-05-10T12:51:06;4.60;;;2.40;;
75009;SDS011;63564;46.840;18.336;2023-05-10T12:54:11;6.40;;;2.07;;
75009;SDS011;63564;46.840;18.336;2023-05-10T12:57:12;4.43;;;1.88;;
75009;SDS011;63564;46.840;18.336;2023-05-10T13:00:13;5.17;;;2.03;;
75009;SDS011;63564;46.840;18.336;2023-05-10T13:03:14;4.75;;;2.13;;
75009;SDS011;63564;46.840;18.336;2023-05-10T13:06:15;3.47;;;1.92;;
75009;SDS011;63564;46.840;18.336;2023-05-10T13:09:15;3.90;;;2.13;;
75009;SDS011;63564;46.840;18.336;2023-05-10T13:12:16;4.60;;;2.20;;
75009;SDS011;63564;46.840;18.336;2023-05-10T13:15:17;4.00;;;2.30;;
75009;SDS011;63564;46.840;18.336;2023-05-10T13:18:17;4.57;;;2.30;;
75009;SDS011;63564;46.840;18.336;2023-05-10T13:21:17;4.70;;;2.60;;
75009;SDS011;63564;46.840;18.336;2023-05-10T13:24:18;4.77;;;2.77;;
75009;SDS011;63564;46.840;18.336;2023-05-10T13:27:18;5.07;;;2.70;;
75009;SDS011;63564;46.840;18.336;2023-05-10T13:30:19;4.28;;;2.70;;
75009;SDS011;63564;46.840;18.336;2023-05-10T13:33:20;3.90;;;1.83;;
75009;SDS011;63564;46.840;18.336;2023-05-10T13:36:20;4.67;;;2.07;;
75009;SDS011;63564;46.840;18.336;2023-05-10T13:39:21;3.67;;;1.90;;
75009;SDS011;63564;46.840;18.336;2023-05-10T13:42:22;5.40;;;2.10;;
75009;SDS011;63564;46.840;18.336;2023-05-10T13:45:23;3.20;;;2.08;;
75009;SDS011;63564;46.840;18.336;2023-05-10T13:48:23;3.87;;;2.10;;
75009;SDS011;63564;46.840;18.336;2023-05-10T13:51:24;5.00;;;1.90;;
75009;SDS011;63564;46.840;18.336;2023-05-10T13:54:24;4.80;;;2.00;;
75009;SDS011;63564;46.840;18.336;2023-05-10T13:57:25;3.90;;;2.03;;
75009;SDS011;63564;46.840;18.336;2023-05-10T14:00:25;4.37;;;2.37;;
75009;SDS011;63564;46.840;18.336;2023-05-10T14:03:26;4.32;;;2.30;;
75009;SDS011;63564;46.840;18.336;2023-05-10T14:06:27;5.30;;;2.10;;
75009;SDS011;63564;46.840;18.336;2023-05-10T14:09:27;4.10;;;2.20;;
75009;SDS011;63564;46.840;18.336;2023-05-10T14:12:28;4.93;;;2.30;;
75009;SDS011;63564;46.840;18.336;2023-05-10T14:15:28;4.33;;;2.63;;
75009;SDS011;63564;46.840;18.336;2023-05-10T14:18:28;4.35;;;2.83;;
75009;SDS011;63564;46.840;18.336;2023-05-10T14:21:29;5.03;;;2.40;;
75009;SDS011;63564;46.840;18.336;2023-05-10T14:24:30;3.50;;;1.90;;
75009;SDS011;63564;46.840;18.336;2023-05-10T14:27:31;4.77;;;2.30;;
75009;SDS011;63564;46.840;18.336;2023-05-10T14:30:32;4.30;;;2.20;;
75009;SDS011;63564;46.840;18.336;2023-05-10T14:33:34;4.22;;;2.45;;
75009;SDS011;63564;46.840;18.336;2023-05-10T14:36:34;4.00;;;2.10;;
75009;SDS011;63564;46.840;18.336;2023-05-10T14:39:34;3.73;;;2.20;;
75009;SDS011;63564;46.840;18.336;2023-05-10T14:42:35;4.10;;;2.30;;
75009;SDS011;63564;46.840;18.336;2023-05-10T14:45:35;3.43;;;1.93;;
75009;SDS011;63564;46.840;18.336;2023-05-10T14:48:36;4.20;;;2.40;;
75009;SDS011;63564;46.840;18.336;2023-05-10T14:51:36;4.55;;;2.22;;
75009;SDS011;63564;46.840;18.336;2023-05-10T14:54:36;3.97;;;2.03;;
75009;SDS011;63564;46.840;18.336;2023-05-10T14:57:37;4.30;;;2.23;;
75009;SDS011;63564;46.840;18.336;2023-05-10T15:00:37;4.37;;;2.43;;
75009;SDS011;63564;46.840;18.336;2023-05-10T15:03:38;5.50;;;2.50;;
75009;SDS011;63564;46.840;18.336;2023-05-10T15:06:38;4.85;;;2.13;;
75009;SDS011;63564;46.840;18.336;2023-05-10T15:09:40;4.90;;;2.43;;
75009;SDS011;63564;46.840;18.336;2023-05-10T15:12:40;4.27;;;2.40;;
75009;SDS011;63564;46.840;18.336;2023-05-10T15:15:41;4.80;;;2.28;;
75009;SDS011;63564;46.840;18.336;2023-05-10T15:18:41;4.97;;;2.33;;
75009;SDS011;63564;46.840;18.336;2023-05-10T15:21:41;4.17;;;2.20;;
75009;SDS011;63564;46.840;18.336;2023-05-10T15:24:44;6.20;;;2.50;;
75009;SDS011;63564;46.840;18.336;2023-05-10T15:27:44;5.03;;;2.40;;
75009;SDS011;63564;46.840;18.336;2023-05-10T15:30:45;5.00;;;2.20;;
75009;SDS011;63564;46.840;18.336;2023-05-10T15:33:45;4.17;;;2.37;;
75009;SDS011;63564;46.840;18.336;2023-05-10T15:36:45;4.80;;;2.33;;
75009;SDS011;63564;46.840;18.336;2023-05-10T15:39:46;4.80;;;2.30;;
75009;SDS011;63564;46.840;18.336;2023-05-10T15:42:47;5.60;;;2.70;;
75009;SDS011;63564;46.840;18.336;2023-05-10T15:45:47;5.00;;;2.23;;
75009;SDS011;63564;46.840;18.336;2023-05-10T15:48:47;5.90;;;2.23;;
75009;SDS011;63564;46.840;18.336;2023-05-10T15:51:48;4.35;;;2.20;;
75009;SDS011;63564;46.840;18.336;2023-05-10T15:54:48;4.27;;;2.13;;
75009;SDS011;63564;46.840;18.336;2023-05-10T15:57:49;4.47;;;2.17;;
75009;SDS011;63564;46.840;18.336;2023-05-10T16:00:50;3.42;;;2.10;;
75009;SDS011;63564;46.840;18.336;2023-05-10T16:03:50;4.87;;;2.40;;
75009;SDS011;63564;46.840;18.336;2023-05-10T16:06:51;5.53;;;2.33;;
75009;SDS011;63564;46.840;18.336;2023-05-10T16:09:51;3.43;;;1.97;;
75009;SDS011;63564;46.840;18.336;2023-05-10T16:12:52;4.17;;;2.20;;
75009;SDS011;63564;46.840;18.336;2023-05-10T16:15:53;4.80;;;2.20;;
75009;SDS011;63564;46.840;18.336;2023-05-10T16:18:54;4.78;;;1.98;;
75009;SDS011;63564;46.840;18.336;2023-05-10T16:21:54;4.87;;;2.30;;
75009;SDS011;63564;46.840;18.336;2023-05-10T16:24:57;5.10;;;2.50;;
75009;SDS011;63564;46.840;18.336;2023-05-10T16:27:59;4.55;;;2.40;;
75009;SDS011;63564;46.840;18.336;2023-05-10T16:30:59;3.88;;;2.05;;
75009;SDS011;63564;46.840;18.336;2023-05-10T16:34:00;4.23;;;2.10;;
75009;SDS011;63564;46.840;18.336;2023-05-10T16:37:00;4.33;;;2.00;;
75009;SDS011;63564;46.840;18.336;2023-05-10T16:40:01;4.60;;;2.30;;
75009;SDS011;63564;46.840;18.336;2023-05-10T16:43:01;4.50;;;2.37;;
75009;SDS011;63564;46.840;18.336;2023-05-10T16:46:01;4.27;;;2.13;;
75009;SDS011;63564;46.840;18.336;2023-05-10T16:49:02;4.85;;;2.20;;
75009;SDS011;63564;46.840;18.336;2023-05-10T16:52:02;4.47;;;2.40;;
75009;SDS011;63564;46.840;18.336;2023-05-10T16:55:03;4.10;;;2.00;;
75009;SDS011;63564;46.840;18.336;2023-05-10T16:58:04;4.25;;;2.10;;
75009;SDS011;63564;46.840;18.336;2023-05-10T17:01:04;4.43;;;2.23;;
75009;SDS011;63564;46.840;18.336;2023-05-10T17:04:05;4.37;;;2.13;;
75009;SDS011;63564;46.840;18.336;2023-05-10T17:07:05;5.65;;;2.05;;
75009;SDS011;63564;46.840;18.336;2023-05-10T17:10:07;6.00;;;2.30;;
75009;SDS011;63564;46.840;18.336;2023-05-10T17:13:08;4.22;;;2.05;;
75009;SDS011;63564;46.840;18.336;2023-05-10T17:16:08;4.37;;;2.10;;
75009;SDS011;63564;46.840;18.336;2023-05-10T17:19:09;4.15;;;2.20;;
75009;SDS011;63564;46.840;18.336;2023-05-10T17:22:11;4.00;;;2.00;;
75009;SDS011;63564;46.840;18.336;2023-05-10T17:25:11;4.75;;;2.10;;
75009;SDS011;63564;46.840;18.336;2023-05-10T17:28:12;3.97;;;2.03;;
75009;SDS011;63564;46.840;18.336;2023-05-10T17:31:12;5.00;;;2.20;;
75009;SDS011;63564;46.840;18.336;2023-05-10T17:34:13;5.43;;;2.30;;
75009;SDS011;63564;46.840;18.336;2023-05-10T17:37:13;5.13;;;2.20;;
75009;SDS011;63564;46.840;18.336;2023-05-10T17:40:13;4.85;;;2.50;;
75009;SDS011;63564;46.840;18.336;2023-05-10T17:43:14;5.53;;;2.20;;
75009;SDS011;63564;46.840;18.336;2023-05-10T17:46:14;4.40;;;2.20;;
75009;SDS011;63564;46.840;18.336;2023-05-10T17:49:15;4.23;;;2.30;;
75009;SDS011;63564;46.840;18.336;2023-05-10T17:52:15;5.43;;;2.70;;
75009;SDS011;63564;46.840;18.336;2023-05-10T17:55:15;5.25;;;2.40;;
75009;SDS011;63564;46.840;18.336;2023-05-10T17:58:16;6.37;;;2.50;;
75009;SDS011;63564;46.840;18.336;2023-05-10T18:01:16;5.10;;;2.47;;
75009;SDS011;63564;46.840;18.336;2023-05-10T18:04:17;5.17;;;2.83;;
75009;SDS011;63564;46.840;18.336;2023-05-10T18:07:17;4.80;;;2.50;;
75009;SDS011;63564;46.840;18.336;2023-05-10T18:10:17;5.00;;;2.27;;
75009;SDS011;63564;46.840;18.336;2023-05-10T18:13:18;4.97;;;2.60;;
75009;SDS011;63564;46.840;18.336;2023-05-10T18:16:18;4.67;;;2.43;;
75009;SDS011;63564;46.840;18.336;2023-05-10T18:19:19;6.97;;;3.03;;
75009;SDS011;63564;46.840;18.336;2023-05-10T18:22:21;5.30;;;2.60;;
75009;SDS011;63564;46.840;18.336;2023-05-10T18:25:21;6.07;;;2.80;;